createdAt,value
2022-11-10T00:00:25.493Z,10.80
2022-11-10T00:03:13.754Z,10.77
2022-11-10T00:06:27.412Z,10.80
2022-11-10T00:09:14.945Z,10.75
2022-11-10T00:12:03.732Z,10.71
2022-11-10T00:15:08.550Z,10.71
2022-11-10T00:17:56.245Z,10.73
2022-11-10T00:20:43.474Z,10.73
2022-11-10T00:23:30.977Z,10.68
2022-11-10T00:26:22.173Z,10.66
2022-11-10T00:29:13.865Z,10.67
2022-11-10T00:32:01.199Z,10.68
2022-11-10T00:34:48.256Z,10.67
2022-11-10T00:37:35.958Z,10.67
2022-11-10T00:40:23.406Z,10.62
2022-11-10T00:43:11.018Z,10.63
2022-11-10T00:45:59.773Z,10.60
2022-11-10T00:48:47.117Z,10.55
2022-11-10T00:51:34.354Z,10.53
2022-11-10T00:54:22.095Z,10.52
2022-11-10T00:57:09.661Z,10.46
2022-11-10T00:59:56.717Z,10.46
2022-11-10T01:02:45.805Z,10.40
2022-11-10T01:05:37.430Z,10.40
2022-11-10T01:08:24.947Z,10.36
2022-11-10T01:11:16.571Z,10.26
2022-11-10T01:14:03.792Z,10.26
2022-11-10T01:16:50.971Z,10.26
2022-11-10T01:19:39.328Z,10.26
2022-11-10T01:22:26.525Z,10.15
2022-11-10T01:25:14.031Z,10.17
2022-11-10T01:28:01.079Z,10.04
2022-11-10T01:30:48.068Z,10.02
2022-11-10T01:33:36.533Z,10.01
2022-11-10T01:36:25.541Z,9.98
2022-11-10T01:39:12.910Z,9.99
2022-11-10T01:41:59.946Z,9.98
2022-11-10T01:45:42.713Z,9.94
2022-11-10T01:48:36.687Z,9.92
2022-11-10T01:51:31.126Z,9.91
2022-11-10T01:54:26.482Z,9.90
2022-11-10T01:57:16.520Z,9.79
2022-11-10T02:00:05.365Z,9.78
2022-11-10T02:03:02.685Z,9.76
2022-11-10T02:05:52.143Z,9.71
2022-11-10T02:08:42.342Z,9.67
2022-11-10T02:11:30.581Z,9.69
2022-11-10T02:14:18.128Z,9.58
2022-11-10T02:17:05.431Z,9.58
2022-11-10T02:19:53.706Z,9.61
2022-11-10T02:22:42.580Z,9.57
2022-11-10T02:25:34.332Z,9.51
2022-11-10T02:28:22.900Z,9.45
2022-11-10T02:31:10.521Z,9.39
2022-11-10T02:33:57.570Z,9.37
2022-11-10T02:36:44.948Z,9.40
2022-11-10T02:39:33.798Z,9.42
2022-11-10T02:42:21.143Z,9.38
2022-11-10T02:45:09.525Z,9.39
2022-11-10T02:47:56.509Z,9.36
2022-11-10T02:50:43.771Z,9.26
2022-11-10T02:53:31.279Z,9.28
2022-11-10T02:56:19.663Z,9.22
2022-11-10T02:59:06.707Z,9.27
2022-11-10T03:01:53.655Z,9.20
2022-11-10T03:04:41.058Z,9.13
2022-11-10T03:07:28.365Z,9.13
2022-11-10T03:10:15.494Z,9.14
2022-11-10T03:13:04.538Z,9.10
2022-11-10T03:15:52.415Z,9.03
2022-11-10T03:18:39.703Z,9.05
2022-11-10T03:21:26.649Z,9.00
2022-11-10T03:24:14.104Z,9.00
2022-11-10T03:27:01.283Z,9.04
2022-11-10T03:29:49.651Z,9.02
2022-11-10T03:32:36.903Z,9.00
2022-11-10T03:35:24.143Z,9.03
2022-11-10T03:38:11.342Z,9.03
2022-11-10T03:44:06.239Z,8.99
2022-11-10T03:46:55.138Z,8.94
2022-11-10T03:49:42.807Z,8.93
2022-11-10T03:52:31.534Z,8.88
2022-11-10T03:55:28.086Z,8.82
2022-11-10T03:58:15.698Z,8.83
2022-11-10T04:01:03.190Z,8.85
2022-11-10T04:03:53.234Z,8.88
2022-11-10T04:06:58.314Z,8.85
2022-11-10T04:09:45.980Z,8.82
2022-11-10T04:12:50.833Z,8.81
2022-11-10T04:15:43.668Z,8.81
2022-11-10T04:18:31.372Z,8.80
2022-11-10T04:21:21.397Z,8.82
2022-11-10T04:24:10.028Z,8.81
2022-11-10T04:26:59.299Z,8.77
2022-11-10T04:29:46.718Z,8.79
2022-11-10T04:32:33.983Z,8.73
2022-11-10T04:35:21.409Z,8.62
2022-11-10T04:38:11.901Z,8.61
2022-11-10T04:40:59.725Z,8.68
2022-11-10T04:43:48.064Z,8.69
2022-11-10T04:46:38.213Z,8.59
2022-11-10T04:49:26.747Z,8.62
2022-11-10T04:52:15.196Z,8.58
2022-11-10T04:55:05.462Z,8.45
2022-11-10T04:57:53.172Z,8.45
2022-11-10T05:00:42.009Z,8.48
2022-11-10T05:03:29.613Z,8.48
2022-11-10T05:06:17.063Z,8.48
2022-11-10T05:09:05.634Z,8.37
2022-11-10T05:11:54.120Z,8.31
2022-11-10T05:14:41.760Z,8.29
2022-11-10T05:17:29.096Z,8.30
2022-11-10T05:20:16.974Z,8.34
2022-11-10T05:23:24.532Z,8.36
2022-11-10T05:26:15.353Z,8.40
2022-11-10T05:29:04.069Z,8.47
2022-11-10T05:31:51.797Z,8.43
2022-11-10T05:34:40.625Z,8.46
2022-11-10T05:37:30.457Z,8.40
2022-11-10T05:40:19.095Z,8.42
2022-11-10T05:43:07.390Z,8.45
2022-11-10T05:45:56.499Z,8.34
2022-11-10T05:48:44.550Z,8.34
2022-11-10T05:51:33.003Z,8.34
2022-11-10T05:54:20.363Z,8.34
2022-11-10T05:57:07.926Z,8.23
2022-11-10T05:59:55.478Z,8.24
2022-11-10T06:02:44.068Z,8.28
2022-11-10T06:05:34.134Z,8.28
2022-11-10T06:08:21.261Z,8.26
2022-11-10T06:11:08.258Z,8.16
2022-11-10T06:13:55.442Z,8.18
2022-11-10T06:16:42.996Z,8.10
2022-11-10T06:19:31.998Z,8.11
2022-11-10T06:22:19.550Z,8.12
2022-11-10T06:25:08.197Z,8.14
2022-11-10T06:27:55.634Z,8.08
2022-11-10T06:30:43.020Z,8.07
2022-11-10T06:33:31.526Z,8.11
2022-11-10T06:36:19.922Z,8.15
2022-11-10T06:39:07.087Z,8.13
2022-11-10T06:41:54.292Z,8.12
2022-11-10T06:44:41.394Z,8.11
2022-11-10T06:47:29.783Z,8.15
2022-11-10T06:50:17.145Z,8.21
2022-11-10T06:53:06.403Z,8.20
2022-11-10T06:55:53.955Z,8.20
2022-11-10T06:58:41.270Z,8.21
2022-11-10T07:01:28.723Z,8.22
2022-11-10T07:04:20.729Z,8.28
2022-11-10T07:07:08.672Z,8.34
2022-11-10T07:09:57.361Z,8.44
2022-11-10T07:12:44.927Z,8.58
2022-11-10T07:15:33.675Z,8.71
2022-11-10T07:18:21.124Z,8.81
2022-11-10T07:21:08.608Z,8.86
2022-11-10T07:23:56.018Z,8.90
2022-11-10T07:26:44.530Z,8.93
2022-11-10T07:29:32.211Z,8.98
2022-11-10T07:32:19.788Z,9.03
2022-11-10T07:35:07.284Z,9.12
2022-11-10T07:37:54.951Z,9.19
2022-11-10T07:40:42.305Z,9.29
2022-11-10T07:43:30.919Z,9.37
2022-11-10T07:46:18.276Z,9.47
2022-11-10T07:49:05.325Z,9.52
2022-11-10T07:51:52.441Z,9.62
2022-11-10T07:54:39.426Z,9.67
2022-11-10T07:57:26.633Z,9.76
2022-11-10T08:00:18.387Z,9.79
2022-11-10T08:03:08.099Z,9.88
2022-11-10T08:05:55.432Z,9.90
2022-11-10T08:08:42.833Z,9.98
2022-11-10T08:11:30.206Z,9.96
2022-11-10T08:14:17.806Z,10.01
2022-11-10T08:17:06.216Z,10.05
2022-11-10T08:19:53.469Z,10.07
2022-11-10T08:22:40.872Z,10.06
2022-11-10T08:25:34.180Z,10.13
2022-11-10T08:28:22.678Z,10.12
2022-11-10T08:31:09.988Z,10.17
2022-11-10T08:33:58.662Z,10.19
2022-11-10T08:36:46.155Z,10.18
2022-11-10T08:39:40.295Z,10.25
2022-11-10T08:42:27.858Z,10.24
2022-11-10T08:45:16.753Z,10.27
2022-11-10T08:48:06.450Z,10.27
2022-11-10T08:50:55.204Z,10.41
2022-11-10T08:53:42.449Z,10.55
2022-11-10T08:56:29.839Z,10.63
2022-11-10T08:59:18.404Z,10.59
2022-11-10T09:02:05.930Z,10.59
2022-11-10T09:04:53.612Z,10.63
2022-11-10T09:07:51.205Z,10.70
2022-11-10T09:10:42.402Z,10.78
2022-11-10T09:13:30.603Z,10.81
2022-11-10T09:16:19.075Z,10.93
2022-11-10T09:19:06.742Z,10.92
2022-11-10T09:21:54.399Z,10.76
2022-11-10T09:24:42.854Z,10.79
2022-11-10T09:27:29.869Z,10.86
2022-11-10T09:30:18.409Z,10.88
2022-11-10T09:33:05.834Z,10.89
2022-11-10T09:35:57.503Z,10.88
2022-11-10T09:38:45.063Z,10.91
2022-11-10T09:41:34.706Z,10.84
2022-11-10T09:44:28.375Z,10.88
2022-11-10T09:47:50.764Z,10.96
2022-11-10T09:50:48.193Z,10.96
2022-11-10T09:53:42.828Z,11.02
2022-11-10T09:56:36.350Z,10.99
2022-11-10T09:59:29.510Z,10.93
2022-11-10T10:02:30.819Z,10.88
2022-11-10T10:05:52.726Z,10.91
2022-11-10T10:08:58.683Z,10.96
2022-11-10T10:11:57.873Z,11.05
2022-11-10T10:15:14.179Z,11.09
2022-11-10T10:18:24.759Z,11.11
2022-11-10T10:21:32.119Z,11.17
2022-11-10T10:24:27.659Z,11.20
2022-11-10T10:27:24.231Z,11.19
2022-11-10T10:30:17.844Z,11.27
2022-11-10T10:33:17.596Z,11.26
2022-11-10T10:36:13.566Z,11.22
2022-11-10T10:39:08.203Z,11.18
2022-11-10T10:41:55.665Z,11.18
2022-11-10T10:45:15.003Z,11.17
2022-11-10T10:48:02.687Z,11.24
2022-11-10T10:50:50.529Z,11.27
2022-11-10T10:53:48.250Z,11.30
2022-11-10T10:56:36.200Z,11.36
2022-11-10T10:59:25.140Z,11.35
2022-11-10T11:02:28.257Z,11.39
2022-11-10T11:05:19.162Z,11.48
2022-11-10T11:08:07.146Z,11.53
2022-11-10T11:10:54.496Z,11.50
2022-11-10T11:13:41.620Z,11.54
2022-11-10T11:16:28.460Z,11.52
2022-11-10T11:19:17.777Z,11.54
2022-11-10T11:22:51.510Z,11.50
2022-11-10T11:25:45.207Z,11.57
2022-11-10T11:28:46.240Z,11.50
2022-11-10T11:31:48.084Z,11.46
2022-11-10T11:34:48.714Z,11.43
2022-11-10T11:37:49.367Z,11.48
2022-11-10T11:40:49.445Z,11.44
2022-11-10T11:44:19.234Z,11.47
2022-11-10T11:47:32.821Z,11.59
2022-11-10T11:50:33.468Z,11.66
2022-11-10T11:53:45.248Z,11.61
2022-11-10T11:56:39.260Z,11.63
2022-11-10T11:59:58.292Z,11.67
2022-11-10T12:03:21.889Z,11.69
2022-11-10T12:06:29.128Z,11.66
2022-11-10T12:18:12.997Z,11.89
2022-11-10T12:21:16.943Z,11.92
2022-11-10T12:24:33.033Z,12.01
2022-11-10T12:27:27.036Z,11.99
2022-11-10T12:30:18.023Z,11.98
2022-11-10T12:33:17.006Z,11.95
2022-11-10T12:36:09.550Z,12.01
2022-11-10T12:39:04.402Z,11.96
2022-11-10T12:41:59.992Z,11.97
2022-11-10T12:45:03.095Z,11.86
2022-11-10T12:47:51.144Z,11.78
2022-11-10T12:50:54.830Z,11.77
2022-11-10T12:53:44.733Z,11.77
2022-11-10T12:56:40.740Z,11.76
2022-11-10T12:59:35.315Z,11.68
2022-11-10T13:02:33.082Z,11.67
2022-11-10T13:05:38.400Z,11.70
2022-11-10T13:08:33.495Z,11.68
2022-11-10T13:11:34.372Z,11.75
2022-11-10T13:14:26.351Z,11.72
2022-11-10T13:17:55.675Z,11.78
2022-11-10T13:20:55.885Z,11.82
2022-11-10T13:24:25.732Z,11.73
2022-11-10T13:27:15.245Z,11.75
2022-11-10T13:30:02.930Z,11.78
2022-11-10T13:32:50.265Z,11.77
2022-11-10T13:35:55.824Z,11.78
2022-11-10T13:38:46.059Z,11.79
2022-11-10T13:41:35.968Z,11.80
2022-11-10T13:44:27.541Z,11.79
2022-11-10T13:47:54.790Z,11.76
2022-11-10T13:51:02.678Z,11.68
2022-11-10T13:54:14.285Z,11.68
2022-11-10T13:57:28.729Z,11.68
2022-11-10T14:00:30.316Z,11.67
2022-11-10T14:03:57.612Z,11.67
2022-11-10T14:06:51.425Z,11.60
2022-11-10T14:09:41.892Z,11.57
2022-11-10T14:12:40.861Z,11.54
2022-11-10T14:15:43.650Z,11.48
2022-11-10T14:18:42.916Z,11.50
2022-11-10T14:21:39.992Z,11.49
2022-11-10T14:24:32.680Z,11.45
2022-11-10T14:27:27.601Z,11.38
2022-11-10T14:30:26.659Z,11.39
2022-11-10T14:33:16.332Z,11.35
2022-11-10T14:36:09.015Z,11.34
2022-11-10T14:38:58.211Z,11.31
2022-11-10T14:41:51.250Z,11.30
2022-11-10T14:44:39.088Z,11.27
2022-11-10T14:47:31.351Z,11.27
2022-11-10T14:50:23.018Z,11.22
2022-11-10T14:53:25.092Z,11.20
2022-11-10T14:56:20.854Z,11.24
2022-11-10T14:59:14.265Z,11.23
2022-11-10T15:02:03.482Z,11.28
2022-11-10T15:04:53.771Z,11.28
2022-11-10T15:07:42.694Z,11.24
2022-11-10T15:10:45.570Z,11.19
2022-11-10T15:13:39.814Z,11.11
2022-11-10T15:16:29.589Z,11.07
2022-11-10T15:19:31.753Z,11.05
2022-11-10T15:22:30.760Z,10.98
2022-11-10T15:25:23.369Z,10.94
2022-11-10T15:28:30.755Z,10.93
2022-11-10T15:31:26.553Z,10.89
2022-11-10T15:34:41.563Z,10.84
2022-11-10T15:37:34.564Z,10.79
2022-11-10T15:40:37.496Z,10.74
2022-11-10T15:43:29.251Z,10.69
2022-11-10T15:46:20.919Z,10.63
2022-11-10T15:49:14.482Z,10.55
2022-11-10T15:52:05.283Z,10.50
2022-11-10T15:54:54.111Z,10.46
2022-11-10T15:57:41.718Z,10.45
2022-11-10T16:00:29.164Z,10.45
2022-11-10T16:03:20.949Z,10.44
2022-11-10T16:06:11.095Z,10.39
2022-11-10T16:08:58.569Z,10.34
2022-11-10T16:11:47.728Z,10.32
2022-11-10T16:14:35.015Z,10.26
2022-11-10T16:17:22.834Z,10.27
2022-11-10T16:20:16.105Z,10.12
2022-11-10T16:23:03.561Z,10.04
2022-11-10T16:25:55.307Z,10.05
2022-11-10T16:28:47.785Z,10.04
2022-11-10T16:31:35.549Z,10.03
2022-11-10T16:34:23.166Z,10.00
2022-11-10T16:37:14.278Z,9.96
2022-11-10T16:40:01.516Z,9.94
2022-11-10T16:42:49.859Z,9.92
2022-11-10T16:45:39.216Z,9.86
2022-11-10T16:48:32.053Z,9.82
2022-11-10T16:51:19.490Z,9.79
2022-11-10T16:54:06.528Z,9.75
2022-11-10T16:56:53.544Z,9.72
2022-11-10T16:59:40.585Z,9.67
2022-11-10T17:02:35.726Z,9.63
2022-11-10T17:05:23.031Z,9.60
2022-11-10T17:08:22.640Z,9.58
2022-11-10T17:11:11.226Z,9.52
2022-11-10T17:13:58.350Z,9.55
2022-11-10T17:16:48.240Z,9.50
2022-11-10T17:19:37.126Z,9.43
2022-11-10T17:22:26.984Z,9.42
2022-11-10T17:25:27.009Z,9.39
2022-11-10T17:28:16.153Z,9.37
2022-11-10T17:31:04.525Z,9.29
2022-11-10T17:33:52.229Z,9.24
2022-11-10T17:36:41.956Z,9.23
2022-11-10T17:39:30.123Z,9.22
2022-11-10T17:42:17.878Z,9.20
2022-11-10T17:45:07.329Z,9.20
2022-11-10T17:47:55.806Z,9.13
2022-11-10T17:50:48.410Z,9.09
2022-11-10T17:53:37.287Z,9.02
2022-11-10T17:56:24.682Z,8.97
2022-11-10T17:59:12.103Z,9.04
2022-11-10T18:02:01.138Z,8.98
2022-11-10T18:05:14.313Z,9.02
2022-11-10T18:08:01.456Z,9.01
2022-11-10T18:10:53.094Z,9.01
2022-11-10T18:13:42.103Z,8.97
2022-11-10T18:16:29.397Z,8.85
2022-11-10T18:19:16.390Z,8.88
2022-11-10T18:22:03.811Z,8.90
2022-11-10T18:25:11.463Z,8.91
2022-11-10T18:28:09.001Z,8.93
2022-11-10T18:31:08.511Z,8.85
2022-11-10T18:33:59.143Z,8.83
2022-11-10T18:36:47.158Z,8.87
2022-11-10T18:39:34.526Z,8.86
2022-11-10T18:42:21.697Z,8.83
2022-11-10T18:45:13.002Z,8.83
2022-11-10T18:48:04.013Z,8.83
2022-11-10T18:50:56.971Z,8.77
2022-11-10T18:53:46.639Z,8.79
2022-11-10T18:56:35.783Z,8.78
2022-11-10T18:59:24.171Z,8.73
2022-11-10T19:02:15.425Z,8.67
2022-11-10T19:05:03.509Z,8.71
2022-11-10T19:07:51.002Z,8.70
2022-11-10T19:10:47.340Z,8.70
2022-11-10T19:13:37.510Z,8.68
2022-11-10T19:16:24.998Z,8.55
2022-11-10T19:19:13.823Z,8.56
2022-11-10T19:22:08.639Z,8.60
2022-11-10T19:25:11.294Z,8.53
2022-11-10T19:27:59.345Z,8.49
2022-11-10T19:30:46.948Z,8.51
2022-11-10T19:33:46.323Z,8.50
2022-11-10T19:37:00.703Z,8.48
2022-11-10T19:39:55.277Z,8.51
2022-11-10T19:42:42.405Z,8.41
2022-11-10T19:45:37.109Z,8.34
2022-11-10T19:48:24.394Z,8.41
2022-11-10T19:51:13.998Z,8.45
2022-11-10T19:54:05.195Z,8.39
2022-11-10T19:56:52.704Z,8.41
2022-11-10T19:59:41.292Z,8.34
2022-11-10T20:02:28.882Z,8.40
2022-11-10T20:05:21.143Z,8.37
2022-11-10T20:08:22.677Z,8.33
2022-11-10T20:12:12.681Z,8.27
2022-11-10T20:15:05.606Z,8.23
2022-11-10T20:17:53.391Z,8.25
2022-11-10T20:20:46.875Z,8.22
2022-11-10T20:23:36.823Z,8.19
2022-11-10T20:26:26.224Z,8.16
2022-11-10T20:29:14.966Z,8.18
2022-11-10T20:32:02.436Z,8.20
2022-11-10T20:34:50.792Z,8.13
2022-11-10T20:37:38.363Z,8.12
2022-11-10T20:40:43.602Z,8.15
2022-11-10T20:43:36.243Z,8.14
2022-11-10T20:46:52.919Z,8.12
2022-11-10T20:49:32.660Z,8.16
2022-11-10T20:52:20.160Z,8.14
2022-11-10T20:55:08.291Z,8.03
2022-11-10T20:57:57.033Z,8.05
2022-11-10T21:00:46.232Z,7.97
2022-11-10T21:03:37.104Z,7.92
2022-11-10T21:06:24.371Z,7.97
2022-11-10T21:09:13.535Z,7.82
2022-11-10T21:12:32.594Z,7.85
2022-11-10T21:15:21.698Z,7.83
2022-11-10T21:18:08.866Z,7.78
2022-11-10T21:20:57.630Z,7.80
2022-11-10T21:23:45.232Z,7.87
2022-11-10T21:26:34.274Z,7.86
2022-11-10T21:29:21.844Z,7.80
2022-11-10T21:32:09.066Z,7.77
2022-11-10T21:34:56.257Z,7.77
2022-11-10T21:37:45.099Z,7.77
2022-11-10T21:40:32.721Z,7.76
2022-11-10T21:43:20.225Z,7.79
2022-11-10T21:46:07.849Z,7.68
2022-11-10T21:48:55.025Z,7.74
2022-11-10T21:51:42.606Z,7.73
2022-11-10T21:54:31.394Z,7.75
2022-11-10T21:57:18.705Z,7.75
2022-11-10T22:00:07.413Z,7.74
2022-11-10T22:02:59.644Z,7.75
2022-11-10T22:05:47.248Z,7.62
2022-11-10T22:08:34.852Z,7.70
2022-11-10T22:11:40.836Z,7.70
2022-11-10T22:14:45.046Z,7.62
2022-11-10T22:17:50.013Z,7.62
2022-11-10T22:20:37.027Z,7.56
2022-11-10T22:23:44.512Z,7.43
2022-11-10T22:26:33.182Z,7.48
2022-11-10T22:29:20.803Z,7.43
2022-11-10T22:32:07.661Z,7.45
2022-11-10T22:34:54.712Z,7.47
2022-11-10T22:37:42.123Z,7.50
2022-11-10T22:40:46.575Z,7.52
2022-11-10T22:43:52.345Z,7.48
2022-11-10T22:46:41.476Z,7.50
2022-11-10T22:49:28.691Z,7.51
2022-11-10T22:52:16.474Z,7.46
2022-11-10T22:55:03.467Z,7.46
2022-11-10T22:57:55.770Z,7.43
2022-11-10T23:00:47.217Z,7.43
2022-11-10T23:03:35.335Z,7.34
2022-11-10T23:06:24.037Z,7.28
2022-11-10T23:09:11.603Z,7.21
2022-11-10T23:11:59.343Z,7.14
2022-11-10T23:14:47.825Z,7.08
2022-11-10T23:17:36.626Z,7.00
2022-11-10T23:20:24.236Z,6.96
2022-11-10T23:23:11.396Z,7.02
2022-11-10T23:26:00.781Z,6.98
2022-11-10T23:28:48.351Z,6.87
2022-11-10T23:31:35.337Z,6.96
2022-11-10T23:34:24.239Z,6.83
2022-11-10T23:37:11.404Z,6.81
2022-11-10T23:39:58.955Z,6.75
2022-11-10T23:42:47.039Z,6.83
2022-11-10T23:46:04.804Z,6.93
2022-11-10T23:48:42.592Z,6.81
2022-11-10T23:51:31.387Z,6.86
2022-11-10T23:54:19.723Z,6.87
2022-11-10T23:57:06.967Z,6.86
2022-11-10T23:59:54.041Z,6.77
